Time;durP1;ratioP1;P1;durP2;ratioP2;P2;SDS_P1;SDS_P2;PMS_P1;PMS_P2;Temp;Humidity;BMP_temperature;BMP_pressure;BME280_temperature;BME280_humidity;BME280_pressure;Samples;Min_cycle;Max_cycle;Signal;HPM_P1;HPM_P2
2023/05/13 00:01:22;;;;;;;11.25;8.57;;;;;;;16.65;62.41;101920.53;5008179;28;20109;-92
2023/05/13 00:03:47;;;;;;;10.13;8.73;;;;;;;16.65;63.29;101929.41;5009751;28;20029;-92
2023/05/13 00:06:12;;;;;;;9.30;8.40;;;;;;;16.68;62.54;101926.56;5010014;28;20017;-92
2023/05/13 00:08:38;;;;;;;10.90;8.65;;;;;;;16.71;62.97;101922.91;5008452;28;20269;-93
2023/05/13 00:11:03;;;;;;;10.45;9.05;;;;;;;16.64;63.15;101916.97;5010955;28;20025;-92
2023/05/13 00:13:28;;;;;;;11.40;8.55;;;;;;;16.69;63.35;101928.31;5011492;28;20032;-92
2023/05/13 00:15:54;;;;;;;10.88;8.85;;;;;;;16.58;63.47;101910.13;5010846;28;20021;-92
2023/05/13 00:18:19;;;;;;;10.10;8.73;;;;;;;16.67;63.37;101924.00;5008774;28;20030;-92
2023/05/13 00:20:44;;;;;;;10.32;8.95;;;;;;;16.53;64.06;101922.84;5006535;28;20037;-92
2023/05/13 00:23:10;;;;;;;13.10;9.13;;;;;;;16.38;63.95;101912.91;5003664;28;20026;-92
2023/05/13 00:25:36;;;;;;;9.15;8.20;;;;;;;16.27;63.81;101923.19;5008930;28;20025;-94
2023/05/13 00:28:01;;;;;;;10.52;8.75;;;;;;;16.19;64.05;101909.38;5023916;28;20025;-92
2023/05/13 00:30:26;;;;;;;11.35;8.85;;;;;;;16.16;63.88;101918.38;5004728;28;20034;-92
2023/05/13 00:32:52;;;;;;;9.77;8.82;;;;;;;16.13;63.68;101904.31;5005913;28;20026;-92
2023/05/13 00:35:17;;;;;;;10.88;8.30;;;;;;;16.12;63.06;101910.59;5007733;28;20445;-92
2023/05/13 00:37:43;;;;;;;12.38;7.80;;;;;;;16.13;64.12;101921.16;5009968;28;20029;-92
2023/05/13 00:40:23;;;;;;;11.55;8.65;;;;;;;16.15;64.25;101921.13;5007325;28;20037;-92
2023/05/13 00:42:49;;;;;;;10.15;8.82;;;;;;;16.04;63.71;101914.50;5003801;28;20030;-92
2023/05/13 00:45:14;;;;;;;9.30;8.00;;;;;;;16.00;63.06;101912.03;5005404;28;20029;-92
2023/05/13 00:47:40;;;;;;;9.55;7.97;;;;;;;16.00;63.74;101912.88;5022739;28;20136;-92
2023/05/13 00:50:08;;;;;;;12.93;7.97;;;;;;;16.04;63.51;101916.25;5006036;28;20042;-92
2023/05/13 00:52:34;;;;;;;10.65;7.68;;;;;;;16.03;62.97;101922.53;5008346;28;20532;-92
2023/05/13 00:55:00;;;;;;;12.52;8.77;;;;;;;16.00;62.42;101917.38;5006342;28;20742;-92
2023/05/13 00:57:25;;;;;;;10.02;8.13;;;;;;;15.99;62.58;101913.84;5005495;28;20037;-91
2023/05/13 00:59:51;;;;;;;9.55;8.20;;;;;;;15.85;63.20;101899.38;5004540;28;20028;-92
2023/05/13 01:02:26;;;;;;;9.75;8.43;;;;;;;15.89;63.50;101907.16;5006504;28;20079;-92
2023/05/13 01:05:16;;;;;;;9.35;8.43;;;;;;;16.12;63.48;101927.44;5026650;28;20030;-92
2023/05/13 01:08:19;;;;;;;13.20;9.13;;;;;;;15.92;63.68;101924.84;5007526;28;20053;-91
2023/05/13 01:10:48;;;;;;;;;;;;;;;16.03;63.43;101930.53;5017523;28;20041;-92
2023/05/13 01:13:19;;;;;;;10.68;8.38;;;;;;;15.76;64.75;101925.53;5013971;28;19918;-93
2023/05/13 01:15:57;;;;;;;8.65;7.57;;;;;;;15.67;64.52;101909.94;5033779;28;20069;-92
2023/05/13 01:18:50;;;;;;;12.00;8.90;;;;;;;15.74;63.80;101930.06;5015739;28;20022;-92
2023/05/13 01:21:21;;;;;;;9.48;8.48;;;;;;;15.60;63.47;101927.09;5009819;28;20046;-93
2023/05/13 01:23:46;;;;;;;10.80;7.85;;;;;;;15.53;63.16;101917.66;5015772;28;20393;-93
2023/05/13 01:26:11;;;;;;;11.65;8.82;;;;;;;15.55;63.76;101918.44;5015349;28;20203;-92
2023/05/13 01:28:37;;;;;;;9.95;8.38;;;;;;;15.50;63.39;101923.09;5014716;28;20053;-93
2023/05/13 01:31:02;;;;;;;9.43;8.43;;;;;;;15.46;63.18;101916.19;5013878;28;20038;-92
2023/05/13 01:33:29;;;;;;;9.75;8.68;;;;;;;15.41;64.12;101915.50;5011337;28;20048;-92
2023/05/13 01:35:54;;;;;;;9.18;8.27;;;;;;;15.39;63.93;101923.56;5015080;28;20061;-92
2023/05/13 01:38:20;;;;;;;11.10;8.52;;;;;;;15.33;64.02;101918.50;5014663;28;20052;-93
2023/05/13 01:40:46;;;;;;;9.32;8.20;;;;;;;15.31;63.17;101921.22;5021859;28;20061;-92
2023/05/13 01:43:11;;;;;;;10.95;8.57;;;;;;;15.26;64.19;101922.38;5014038;28;20030;-92
2023/05/13 01:45:36;;;;;;;9.18;8.27;;;;;;;15.28;63.88;101929.34;5018494;28;20416;-93
2023/05/13 01:48:02;;;;;;;10.60;8.55;;;;;;;15.14;65.09;101923.72;5016896;28;20452;-91
2023/05/13 01:50:27;;;;;;;11.45;9.55;;;;;;;15.04;66.03;101925.91;5012132;28;20069;-93
2023/05/13 01:52:52;;;;;;;10.73;8.43;;;;;;;14.99;64.84;101913.72;5012669;28;20029;-93
2023/05/13 01:55:18;;;;;;;9.70;8.73;;;;;;;14.92;65.27;101912.22;5015876;28;20018;-93
2023/05/13 01:57:43;;;;;;;9.35;8.40;;;;;;;14.92;65.89;101925.53;5017381;28;20038;-93
2023/05/13 02:00:09;;;;;;;10.13;8.63;;;;;;;14.90;64.67;101928.28;5014692;28;20079;-92
2023/05/13 02:02:34;;;;;;;10.27;8.60;;;;;;;14.80;65.40;101910.94;5031497;28;20097;-93
2023/05/13 02:05:00;;;;;;;10.07;8.82;;;;;;;14.88;65.70;101929.28;5015585;28;20118;-92
2023/05/13 02:07:25;;;;;;;12.57;9.05;;;;;;;14.75;64.14;101899.63;5015630;28;20017;-93
2023/05/13 02:09:54;;;;;;;9.93;8.10;;;;;;;14.85;63.65;101922.28;5015529;28;20131;-92
2023/05/13 02:12:19;;;;;;;8.52;7.43;;;;;;;14.83;63.03;101916.16;5021940;28;20481;-93
2023/05/13 02:14:44;;;;;;;10.27;7.68;;;;;;;14.77;63.04;101909.28;5014644;28;20024;-93
2023/05/13 02:17:10;;;;;;;10.65;8.00;;;;;;;14.88;62.50;101918.63;5013764;28;20044;-93
2023/05/13 02:19:35;;;;;;;10.38;8.02;;;;;;;14.87;63.44;101920.41;5020380;28;20026;-93
2023/05/13 02:22:00;;;;;;;8.98;8.07;;;;;;;14.85;63.95;101922.28;5011296;28;20056;-92
2023/05/13 02:24:26;;;;;;;11.73;7.63;;;;;;;14.88;62.19;101927.50;5033586;28;20112;-93
2023/05/13 02:26:51;;;;;;;8.52;7.63;;;;;;;14.90;62.54;101927.41;5025212;28;20084;-93
2023/05/13 02:29:17;;;;;;;8.85;7.95;;;;;;;14.80;63.08;101922.47;5015459;28;20117;-92
2023/05/13 02:31:42;;;;;;;9.10;7.95;;;;;;;14.79;63.11;101931.38;5010647;28;21040;-92
2023/05/13 02:34:07;;;;;;;7.90;7.10;;;;;;;14.80;62.98;101929.59;5014557;28;20485;-93
2023/05/13 02:36:33;;;;;;;8.10;7.30;;;;;;;14.73;62.50;101925.44;5012326;28;20038;-93
2023/05/13 02:38:58;;;;;;;8.25;7.40;;;;;;;14.64;61.41;101913.38;5024244;28;20468;-94
2023/05/13 02:41:23;;;;;;;11.23;8.30;;;;;;;14.64;61.96;101926.69;5010674;28;20052;-93
2023/05/13 02:43:49;;;;;;;11.13;7.90;;;;;;;14.57;61.86;101924.31;5014010;28;20041;-93
2023/05/13 02:46:14;;;;;;;9.35;7.57;;;;;;;14.45;62.54;101922.94;5013242;28;20172;-92
2023/05/13 02:48:39;;;;;;;10.48;8.30;;;;;;;14.35;65.43;101917.13;5015086;28;20048;-93
2023/05/13 02:51:05;;;;;;;10.85;8.25;;;;;;;14.23;65.45;101920.28;5040450;28;20040;-93
2023/05/13 02:53:30;;;;;;;10.02;8.75;;;;;;;14.21;66.42;101930.09;5014620;28;20029;-94
2023/05/13 02:55:56;;;;;;;9.63;8.32;;;;;;;14.17;65.36;101918.69;5031460;28;20025;-92
2023/05/13 02:58:21;;;;;;;13.23;7.97;;;;;;;14.12;64.27;101912.69;5021088;28;20021;-92
2023/05/13 03:00:46;;;;;;;8.75;7.80;;;;;;;14.17;66.12;101917.84;5036813;28;20025;-93
2023/05/13 03:03:11;;;;;;;9.48;8.18;;;;;;;14.16;64.43;101919.63;5029983;28;20103;-92
2023/05/13 03:05:37;;;;;;;9.43;8.50;;;;;;;14.19;64.99;101919.53;5017409;28;20030;-93
2023/05/13 03:08:02;;;;;;;9.93;8.27;;;;;;;14.19;65.84;101919.53;5016032;28;20427;-93
2023/05/13 03:10:27;;;;;;;9.52;7.90;;;;;;;14.16;64.89;101911.66;5025147;28;20029;-93
2023/05/13 03:12:53;;;;;;;9.38;8.35;;;;;;;14.18;64.25;101915.13;5031407;28;20528;-94
2023/05/13 03:15:18;;;;;;;8.95;7.80;;;;;;;14.19;63.66;101919.53;5028115;28;20068;-93
2023/05/13 03:17:43;;;;;;;8.35;7.53;;;;;;;14.23;63.65;101921.16;5014538;28;20022;-93
2023/05/13 03:20:10;;;;;;;9.35;8.38;;;;;;;14.11;64.71;101912.75;5032476;28;20026;-92
2023/05/13 03:22:37;;;;;;;13.15;8.57;;;;;;;13.90;63.17;101914.44;5012019;28;20049;-93
2023/05/13 03:25:04;;;;;;;9.00;8.07;;;;;;;13.82;64.47;101912.03;5027310;28;20017;-92
2023/05/13 03:27:29;;;;;;;11.23;8.60;;;;;;;13.73;66.42;101921.22;5034962;28;20025;-93
2023/05/13 03:29:54;;;;;;;11.88;8.13;;;;;;;13.56;65.77;101915.63;5014627;28;20041;-93
2023/05/13 03:32:19;;;;;;;10.93;8.65;;;;;;;13.59;66.49;101928.81;5011998;28;20530;-93
2023/05/13 03:34:45;;;;;;;10.80;9.70;;;;;;;13.52;66.38;101914.00;5020981;28;20028;-93
2023/05/13 03:37:10;;;;;;;13.32;9.52;;;;;;;13.63;65.54;101933.09;5015761;28;20361;-93
2023/05/13 03:39:35;;;;;;;11.07;8.95;;;;;;;13.62;68.10;101925.19;5037581;28;20119;-92
2023/05/13 03:42:01;;;;;;;9.73;8.82;;;;;;;13.51;66.78;101928.22;5009819;28;20487;-93
2023/05/13 03:44:27;;;;;;;11.43;8.95;;;;;;;13.51;66.37;101933.53;5027911;28;20017;-93
2023/05/13 03:46:52;;;;;;;10.20;9.18;;;;;;;13.50;67.81;101926.47;5026819;28;20022;-93
2023/05/13 03:49:18;;;;;;;10.75;8.82;;;;;;;13.54;67.11;101938.75;5032265;28;20492;-93
2023/05/13 03:51:43;;;;;;;10.55;8.93;;;;;;;13.57;67.04;101937.75;5028032;28;20024;-92
2023/05/13 03:54:08;;;;;;;14.65;9.23;;;;;;;13.59;67.46;101935.94;5010761;28;20281;-93
2023/05/13 03:56:33;;;;;;;11.35;8.85;;;;;;;13.60;66.62;101930.53;5029268;28;20068;-93
2023/05/13 03:58:59;;;;;;;10.68;9.45;;;;;;;13.50;65.94;101930.00;5029787;28;20029;-92
2023/05/13 04:01:24;;;;;;;13.40;9.25;;;;;;;13.43;66.61;101935.56;5026216;28;20471;-92
2023/05/13 04:03:49;;;;;;;11.48;9.98;;;;;;;13.26;67.32;101921.09;5027252;28;20029;-93
2023/05/13 04:06:15;;;;;;;12.45;10.07;;;;;;;13.32;69.53;101929.78;5012269;28;20376;-92
2023/05/13 04:08:40;;;;;;;10.68;9.35;;;;;;;13.42;69.89;101939.16;5011013;28;20040;-93
2023/05/13 04:11:06;;;;;;;10.73;9.23;;;;;;;13.46;67.64;101935.47;5020513;28;20029;-92
2023/05/13 04:13:34;;;;;;;12.32;9.18;;;;;;;13.45;67.82;101926.63;5014556;28;20029;-92
2023/05/13 04:16:00;;;;;;;9.63;8.35;;;;;;;13.53;67.74;101934.34;5025287;28;20030;-93
2023/05/13 04:18:25;;;;;;;10.35;9.10;;;;;;;13.53;66.74;101931.69;5012069;28;20087;-93
2023/05/13 04:20:50;;;;;;;10.13;9.05;;;;;;;13.48;66.06;101938.97;5017481;28;20116;-94
2023/05/13 04:23:16;;;;;;;10.73;9.27;;;;;;;13.37;68.47;101936.66;5009051;28;20437;-93
2023/05/13 04:25:42;;;;;;;11.18;10.02;;;;;;;13.25;67.57;101943.28;5010940;28;20036;-92
2023/05/13 04:28:07;;;;;;;12.70;10.00;;;;;;;13.14;67.75;101932.09;5012220;28;20622;-91
2023/05/13 04:30:33;;;;;;;12.95;10.18;;;;;;;13.17;70.17;101950.59;5027673;28;20039;-91
2023/05/13 04:32:59;;;;;;;13.07;10.18;;;;;;;13.22;68.93;101943.34;5006681;28;20040;-92
2023/05/13 04:35:24;;;;;;;11.20;10.10;;;;;;;13.28;69.55;101952.91;5024591;28;20041;-92
2023/05/13 04:37:49;;;;;;;12.48;10.00;;;;;;;13.20;68.34;101941.66;5011206;28;20448;-91
2023/05/13 04:40:15;;;;;;;13.55;10.23;;;;;;;13.17;69.16;101945.28;5027288;28;20049;-91
2023/05/13 04:42:40;;;;;;;10.98;9.90;;;;;;;13.15;67.56;101947.13;5029153;28;20025;-91
2023/05/13 04:45:06;;;;;;;12.25;9.77;;;;;;;13.15;68.85;101947.13;5031847;28;20017;-92
2023/05/13 04:47:34;;;;;;;10.88;9.73;;;;;;;13.15;68.10;101944.47;5035062;28;20029;-91
2023/05/13 04:49:59;;;;;;;12.55;10.38;;;;;;;12.99;69.14;101938.78;5026389;28;20118;-91
2023/05/13 04:52:24;;;;;;;11.90;10.10;;;;;;;12.95;70.08;101949.53;5032179;28;20139;-92
2023/05/13 04:54:50;;;;;;;12.70;10.80;;;;;;;12.94;68.64;101945.16;5038536;28;20086;-92
2023/05/13 04:57:15;;;;;;;12.52;10.70;;;;;;;12.98;69.72;101954.75;5033167;28;20396;-92
2023/05/13 04:59:41;;;;;;;12.93;10.65;;;;;;;13.07;69.35;101950.94;5032434;28;20149;-91
2023/05/13 05:02:06;;;;;;;12.90;11.52;;;;;;;13.12;68.55;101955.19;5032618;28;20037;-91
2023/05/13 05:04:31;;;;;;;11.48;10.27;;;;;;;13.05;69.17;101950.97;5016954;28;20028;-91
2023/05/13 05:06:56;;;;;;;17.00;10.75;;;;;;;13.17;68.84;101963.00;5016557;28;20035;-91
2023/05/13 05:09:22;;;;;;;14.27;10.88;;;;;;;13.16;69.08;101954.16;5032746;28;20546;-91
2023/05/13 05:11:49;;;;;;;13.45;11.45;;;;;;;13.19;69.15;101963.78;5032988;28;20059;-91
2023/05/13 05:14:14;;;;;;;12.55;11.25;;;;;;;13.18;69.67;101957.63;5032211;28;20105;-91
2023/05/13 05:16:39;;;;;;;14.85;11.63;;;;;;;13.30;69.08;101960.84;5029986;28;20579;-92
2023/05/13 05:19:05;;;;;;;14.82;11.73;;;;;;;13.34;69.48;101967.78;5028426;28;20033;-92
2023/05/13 05:21:30;;;;;;;12.70;11.15;;;;;;;13.40;69.31;101979.06;5028282;28;20021;-91
2023/05/13 05:23:56;;;;;;;12.00;10.77;;;;;;;13.36;68.80;101971.25;5046068;28;20029;-92
2023/05/13 05:26:21;;;;;;;13.05;11.20;;;;;;;13.41;70.28;101978.13;5032313;28;20034;-92
2023/05/13 05:28:46;;;;;;;13.07;10.70;;;;;;;13.42;68.74;101979.00;5031327;28;20017;-91
2023/05/13 05:31:12;;;;;;;16.45;11.65;;;;;;;13.50;69.58;101976.97;5019569;28;20075;-91
2023/05/13 05:33:37;;;;;;;13.10;11.15;;;;;;;13.67;69.22;101982.56;5015718;28;20029;-91
2023/05/13 05:36:03;;;;;;;15.00;12.07;;;;;;;13.59;69.52;101981.09;5043002;28;20029;-92
2023/05/13 05:38:28;;;;;;;13.70;11.73;;;;;;;13.61;69.80;101979.25;5015159;28;20021;-92
2023/05/13 05:40:54;;;;;;;15.60;11.77;;;;;;;13.62;68.34;101968.56;5015958;28;20496;-92
2023/05/13 05:43:19;;;;;;;13.57;11.85;;;;;;;13.56;69.53;101960.78;5014789;28;20039;-92
2023/05/13 05:45:44;;;;;;;15.70;11.98;;;;;;;13.69;69.37;101978.06;5015968;28;20017;-92
2023/05/13 05:48:10;;;;;;;13.85;11.77;;;;;;;13.81;68.24;101987.41;5016408;28;20441;-92
2023/05/13 05:50:35;;;;;;;14.20;11.43;;;;;;;13.93;67.18;101981.63;5012549;28;20100;-92
2023/05/13 05:53:01;;;;;;;15.60;12.93;;;;;;;14.00;68.58;101984.97;5030172;28;20097;-90
2023/05/13 05:55:27;;;;;;;13.98;12.10;;;;;;;14.16;68.12;102007.41;5031114;28;20037;-92
2023/05/13 05:57:53;;;;;;;14.82;11.52;;;;;;;14.27;68.32;102005.22;5022330;28;20029;-92
2023/05/13 06:00:19;;;;;;;13.18;11.82;;;;;;;14.32;66.32;101996.22;5030669;28;20036;-92
2023/05/13 06:02:44;;;;;;;14.13;12.38;;;;;;;14.40;67.91;102010.06;5030216;28;20036;-92
2023/05/13 06:05:10;;;;;;;17.70;12.43;;;;;;;14.34;67.67;102005.00;5014088;28;20017;-91
2023/05/13 06:07:35;;;;;;;15.10;12.27;;;;;;;14.36;66.98;102003.13;5013248;28;20033;-91
2023/05/13 06:10:00;;;;;;;16.05;12.77;;;;;;;14.34;67.77;101995.22;5010534;28;20385;-92
2023/05/13 06:12:26;;;;;;;14.13;12.63;;;;;;;14.37;67.36;101991.59;5030047;28;20477;-92
2023/05/13 06:14:51;;;;;;;13.77;12.38;;;;;;;14.43;67.29;101997.53;5039118;28;20344;-92
2023/05/13 06:17:16;;;;;;;14.90;12.18;;;;;;;14.47;67.66;101992.97;5032369;28;20090;-92
2023/05/13 06:19:42;;;;;;;15.13;12.68;;;;;;;14.53;67.56;102004.25;5028420;28;20057;-92
2023/05/13 06:22:08;;;;;;;14.30;12.90;;;;;;;14.58;68.02;101996.09;5027831;28;20112;-92
2023/05/13 06:24:33;;;;;;;14.80;12.40;;;;;;;14.65;66.79;102005.59;5012686;28;20017;-91
2023/05/13 06:26:58;;;;;;;15.30;13.30;;;;;;;14.68;66.64;101999.28;5031416;28;20054;-92
2023/05/13 06:29:24;;;;;;;15.95;13.00;;;;;;;14.65;66.50;102000.28;5025282;28;20037;-91
2023/05/13 06:31:49;;;;;;;15.85;14.10;;;;;;;14.64;66.60;102003.88;5009098;28;20037;-91
2023/05/13 06:34:15;;;;;;;18.35;14.48;;;;;;;14.78;67.56;102011.28;5026371;28;20116;-92
2023/05/13 06:36:41;;;;;;;14.25;12.68;;;;;;;15.11;65.37;102010.88;5029587;28;20029;-91
2023/05/13 06:39:07;;;;;;;15.00;13.40;;;;;;;15.37;66.76;102005.38;5029371;28;20161;-92
2023/05/13 06:41:32;;;;;;;14.80;13.05;;;;;;;15.67;64.65;102007.72;5027766;28;20029;-91
2023/05/13 06:43:57;;;;;;;14.85;13.13;;;;;;;15.84;63.79;102012.31;5032563;28;20408;-92
2023/05/13 06:46:23;;;;;;;16.48;13.13;;;;;;;15.74;65.17;101993.19;5032791;28;20029;-91
2023/05/13 06:48:51;;;;;;;16.25;13.80;;;;;;;15.82;63.34;101999.91;5014532;28;20064;-91
2023/05/13 06:51:16;;;;;;;15.68;13.23;;;;;;;16.02;64.50;102016.84;5038265;28;20480;-91
2023/05/13 06:53:41;;;;;;;17.08;12.88;;;;;;;16.14;63.99;102013.66;5022262;28;20059;-91
2023/05/13 06:56:06;;;;;;;16.00;13.50;;;;;;;16.32;64.71;102027.97;5030401;28;20029;-91
2023/05/13 06:58:32;;;;;;;17.40;13.80;;;;;;;16.38;62.70;102021.47;5034746;28;20030;-87
2023/05/13 07:00:57;;;;;;;14.82;13.32;;;;;;;16.40;63.79;102020.44;5034946;28;20086;-91
2023/05/13 07:03:22;;;;;;;16.92;13.30;;;;;;;16.32;63.80;102018.16;5031296;28;20021;-91
2023/05/13 07:05:48;;;;;;;16.02;13.23;;;;;;;16.27;63.59;102011.25;5034652;28;20026;-92
2023/05/13 07:08:16;;;;;;;15.07;13.45;;;;;;;16.19;63.44;102018.78;5032470;28;20025;-91
2023/05/13 07:10:41;;;;;;;17.65;13.55;;;;;;;16.21;63.81;102009.75;5013388;28;20558;-91
2023/05/13 07:13:07;;;;;;;16.65;13.27;;;;;;;16.43;64.11;102019.47;5030041;28;20029;-91
2023/05/13 07:15:32;;;;;;;16.60;13.52;;;;;;;16.52;63.03;102011.03;5014828;28;20109;-91
2023/05/13 07:17:57;;;;;;;15.35;13.32;;;;;;;16.58;63.12;101998.25;5027494;28;20029;-92
2023/05/13 07:20:23;;;;;;;14.77;13.18;;;;;;;16.85;64.28;102011.28;5011173;28;20029;-91
2023/05/13 07:22:48;;;;;;;20.23;14.23;;;;;;;16.99;62.18;102016.81;5028709;28;20022;-91
2023/05/13 07:25:13;;;;;;;16.25;13.02;;;;;;;17.35;61.40;102010.63;5013739;28;20044;-91
2023/05/13 07:27:39;;;;;;;17.35;12.80;;;;;;;17.67;60.65;102003.63;5023967;28;20503;-91
2023/05/13 07:30:05;;;;;;;13.70;12.18;;;;;;;17.97;60.92;101993.19;5022751;28;20036;-91
2023/05/13 07:32:30;;;;;;;14.50;12.88;;;;;;;18.45;59.49;102017.41;5020112;28;20030;-92
2023/05/13 07:34:56;;;;;;;13.20;11.27;;;;;;;18.86;57.11;102007.97;5008730;28;20067;-92
2023/05/13 07:37:22;;;;;;;17.02;12.80;;;;;;;19.38;56.57;102013.00;5013788;28;20028;-93
2023/05/13 07:39:47;;;;;;;13.80;12.30;;;;;;;19.79;53.79;102017.78;5025606;28;20033;-92
2023/05/13 07:42:14;;;;;;;13.57;11.50;;;;;;;20.20;52.88;102011.72;5025115;28;20033;-92
2023/05/13 07:44:39;;;;;;;13.32;11.57;;;;;;;20.61;51.36;102011.81;5027843;28;21233;-92
2023/05/13 07:47:05;;;;;;;13.48;12.00;;;;;;;21.09;50.11;102009.59;5028704;28;20040;-92
2023/05/13 07:49:30;;;;;;;15.43;12.35;;;;;;;21.61;50.46;102007.97;5002463;28;20096;-92
2023/05/13 07:51:55;;;;;;;12.48;10.98;;;;;;;21.90;48.83;102016.72;5010592;28;20041;-92
2023/05/13 07:54:21;;;;;;;12.32;11.02;;;;;;;21.80;47.28;102016.50;5008120;28;20030;-93
2023/05/13 07:56:46;;;;;;;12.32;10.77;;;;;;;21.59;49.49;102012.56;5009212;28;20017;-92
2023/05/13 07:59:12;;;;;;;14.75;11.45;;;;;;;21.88;48.00;102022.22;5006992;28;20037;-91
2023/05/13 08:01:37;;;;;;;13.15;11.32;;;;;;;22.37;47.33;102026.03;4995851;28;20084;-91
2023/05/13 08:04:03;;;;;;;13.07;11.23;;;;;;;22.77;45.90;102018.63;5009566;28;20034;-92
2023/05/13 08:06:28;;;;;;;13.20;11.05;;;;;;;22.98;44.95;102031.53;5008818;28;20028;-91
2023/05/13 08:08:54;;;;;;;13.60;11.30;;;;;;;23.65;43.81;102016.59;5005124;28;20029;-90
2023/05/13 08:11:20;;;;;;;13.73;10.27;;;;;;;24.04;43.10;102021.72;5014532;28;20022;-90
2023/05/13 08:13:45;;;;;;;12.63;11.23;;;;;;;24.34;43.06;102024.69;5016171;28;20038;-91
2023/05/13 08:16:11;;;;;;;12.02;10.77;;;;;;;24.64;43.13;102034.06;5005117;28;20101;-92
2023/05/13 08:18:36;;;;;;;11.95;10.38;;;;;;;24.01;43.01;102027.34;5013200;28;20029;-91
2023/05/13 08:21:02;;;;;;;13.10;11.80;;;;;;;23.53;44.29;102019.31;4996417;28;20393;-91
2023/05/13 08:23:27;;;;;;;14.70;11.65;;;;;;;23.21;44.01;102019.06;5010055;28;20032;-92
2023/05/13 08:25:52;;;;;;;13.30;11.02;;;;;;;23.74;43.28;102020.41;4995003;28;20018;-92
2023/05/13 08:28:17;;;;;;;13.48;11.07;;;;;;;24.62;43.32;102028.78;4993350;28;20094;-92
2023/05/13 08:30:43;;;;;;;14.43;11.75;;;;;;;25.03;41.54;102023.66;5012031;28;20034;-93
2023/05/13 08:33:10;;;;;;;12.10;10.82;;;;;;;25.54;40.92;102023.03;5007653;28;20046;-92
2023/05/13 08:35:35;;;;;;;13.10;11.13;;;;;;;25.53;40.95;102026.72;5009519;28;20492;-91
2023/05/13 08:38:04;;;;;;;14.02;11.38;;;;;;;25.01;40.96;102023.78;5000316;28;20033;-91
2023/05/13 08:40:30;;;;;;;13.02;11.05;;;;;;;25.32;40.74;102019.44;5015920;28;20080;-91
2023/05/13 08:42:57;;;;;;;12.95;9.80;;;;;;;25.74;40.96;102024.03;4987838;28;20025;-92
2023/05/13 08:45:27;;;;;;;12.65;10.85;;;;;;;26.10;41.16;102017.31;5010329;28;20033;-92
2023/05/13 08:48:00;;;;;;;12.35;10.45;;;;;;;26.75;39.71;102017.91;5008427;28;20385;-91
2023/05/13 08:50:29;;;;;;;13.80;10.52;;;;;;;27.11;38.87;102024.59;5028428;28;20049;-92
2023/05/13 08:52:57;;;;;;;12.40;10.77;;;;;;;27.54;37.01;102028.75;5027340;28;20040;-92
2023/05/13 08:55:23;;;;;;;12.30;10.85;;;;;;;27.95;36.04;102024.88;5032576;28;20033;-92
2023/05/13 08:57:49;;;;;;;12.45;11.10;;;;;;;28.05;34.07;102016.72;5011428;28;20261;-93
2023/05/13 09:00:15;;;;;;;13.60;11.05;;;;;;;28.47;36.27;102015.28;5008145;28;20033;-91
2023/05/13 09:02:41;;;;;;;13.70;11.30;;;;;;;28.83;34.95;102023.56;5027993;28;20030;-93
2023/05/13 09:05:08;;;;;;;11.52;10.43;;;;;;;28.99;36.20;102014.75;5024860;28;21050;-92
2023/05/13 09:07:35;;;;;;;13.77;9.60;;;;;;;29.21;36.05;102019.75;5019296;28;20072;-92
2023/05/13 09:10:01;;;;;;;12.27;9.98;;;;;;;29.43;33.84;102013.00;5015932;28;20025;-92
2023/05/13 09:12:44;;;;;;;10.95;9.95;;;;;;;29.65;36.02;102018.97;5029447;28;20452;-92
2023/05/13 09:15:11;;;;;;;11.60;10.15;;;;;;;29.51;33.28;102014.91;5026700;28;20729;-92
2023/05/13 09:17:41;;;;;;;14.05;10.48;;;;;;;29.55;35.26;102007.31;5027934;28;20025;-92
2023/05/13 09:20:08;;;;;;;11.00;9.90;;;;;;;29.47;34.45;101999.88;5027206;28;20476;-91
2023/05/13 09:22:33;;;;;;;14.68;10.40;;;;;;;29.32;33.58;102007.75;5009613;28;20061;-92
2023/05/13 09:24:59;;;;;;;12.45;10.25;;;;;;;29.07;34.92;102003.09;5010159;28;20111;-93
2023/05/13 09:27:37;;;;;;;11.95;10.38;;;;;;;29.13;35.37;101994.28;5014443;28;20029;-93
2023/05/13 09:30:02;;;;;;;10.98;9.85;;;;;;;29.15;36.58;101993.16;5011177;28;20068;-93
2023/05/13 09:32:28;;;;;;;10.93;9.88;;;;;;;29.00;35.70;101999.25;5029521;28;20049;-91
2023/05/13 09:34:53;;;;;;;11.50;10.40;;;;;;;28.81;35.68;101997.50;5034252;28;20033;-93
2023/05/13 09:37:18;;;;;;;11.43;10.32;;;;;;;28.71;36.77;102001.13;5028153;28;20103;-92
2023/05/13 09:39:44;;;;;;;11.13;9.70;;;;;;;28.36;36.06;101988.28;5024147;28;20034;-93
2023/05/13 09:42:18;;;;;;;12.52;9.75;;;;;;;28.34;38.41;102005.72;5027919;28;20789;-93
2023/05/13 09:44:45;;;;;;;12.27;10.35;;;;;;;28.27;37.89;101994.59;5028634;28;20028;-92
2023/05/13 09:47:12;;;;;;;12.00;10.23;;;;;;;28.28;35.43;101987.28;5028812;28;20033;-93
2023/05/13 09:49:37;;;;;;;10.60;9.07;;;;;;;28.16;36.25;101983.88;5028918;28;20057;-93
2023/05/13 09:52:08;;;;;;;10.27;9.27;;;;;;;28.20;38.31;101979.88;5021776;28;20451;-91
2023/05/13 09:54:34;;;;;;;12.25;9.32;;;;;;;28.56;38.34;101993.63;5010161;28;20029;-93
2023/05/13 09:57:00;;;;;;;11.02;9.20;;;;;;;28.64;37.00;101991.88;5032010;28;20021;-93
2023/05/13 09:59:25;;;;;;;9.63;8.73;;;;;;;28.72;37.13;101983.81;5030718;28;20036;-93
2023/05/13 10:01:52;;;;;;;9.32;8.48;;;;;;;28.83;36.22;101988.19;5030869;28;20025;-93
2023/05/13 10:04:18;;;;;;;8.85;7.93;;;;;;;29.09;35.33;101984.72;5026281;28;20060;-92
2023/05/13 10:06:44;;;;;;;9.98;8.68;;;;;;;29.19;35.47;101985.50;5007809;28;20033;-93
2023/05/13 10:09:10;;;;;;;9.43;7.53;;;;;;;29.28;36.42;101970.94;5007770;28;20029;-93
2023/05/13 10:11:35;;;;;;;9.80;8.23;;;;;;;29.52;37.21;101969.44;5031015;28;20036;-93
2023/05/13 10:14:04;;;;;;;11.68;8.27;;;;;;;29.49;34.61;101979.66;5025243;28;20029;-93
2023/05/13 10:16:31;;;;;;;9.93;7.30;;;;;;;29.48;34.05;101963.47;5013313;28;20064;-92
2023/05/13 10:18:57;;;;;;;9.38;7.70;;;;;;;29.77;34.69;101974.09;5032982;28;20029;-93
2023/05/13 10:21:26;;;;;;;9.02;7.78;;;;;;;29.80;33.67;101975.63;5032001;28;20029;-94
2023/05/13 10:23:52;;;;;;;10.85;7.80;;;;;;;29.82;34.44;101966.28;5034105;28;20327;-94
2023/05/13 10:26:20;;;;;;;10.50;8.15;;;;;;;29.91;34.67;101973.50;5019171;28;20060;-94
2023/05/13 10:28:47;;;;;;;8.55;7.70;;;;;;;29.92;33.03;101968.91;5035523;28;20025;-94
2023/05/13 10:31:12;;;;;;;8.05;6.40;;;;;;;29.97;33.93;101966.56;5036389;28;20119;-93
2023/05/13 10:33:39;;;;;;;7.70;6.78;;;;;;;29.99;32.37;101959.94;5012094;28;20113;-93
2023/05/13 10:36:38;;;;;;;8.07;6.35;;;;;;;30.08;33.62;101968.13;5012802;28;20029;-94
2023/05/13 10:39:22;;;;;;;7.18;6.38;;;;;;;30.15;34.66;101966.53;5013571;28;20477;-93
2023/05/13 10:42:25;;;;;;;9.80;5.13;;;;;;;30.39;34.15;101973.97;5030886;28;20033;-92
2023/05/13 10:44:54;;;;;;;7.50;4.72;;;;;;;30.36;31.98;101964.25;5029156;28;20036;-93
2023/05/13 10:47:20;;;;;;;7.18;5.22;;;;;;;30.35;32.01;101961.66;5032046;28;20076;-93
2023/05/13 10:49:52;;;;;;;5.20;4.53;;;;;;;30.28;31.69;101953.28;5011700;28;20037;-93
2023/05/13 10:52:17;;;;;;;5.57;4.43;;;;;;;30.62;33.19;101960.56;5020076;28;20030;-93
2023/05/13 10:54:43;;;;;;;6.43;5.20;;;;;;;30.54;29.51;101949.63;5010194;28;20029;-93
2023/05/13 10:57:09;;;;;;;11.40;5.00;;;;;;;30.66;29.36;101953.75;5012637;28;20040;-93
2023/05/13 10:59:36;;;;;;;7.50;5.35;;;;;;;30.70;28.69;101957.88;5008226;28;20105;-94
2023/05/13 11:02:18;;;;;;;6.18;4.88;;;;;;;30.69;27.69;101954.28;5007071;28;20108;-92
2023/05/13 11:05:18;;;;;;;7.10;5.18;;;;;;;30.80;30.79;101955.03;5001937;28;20038;-92
2023/05/13 11:07:56;;;;;;;5.95;4.63;;;;;;;30.69;28.37;101947.97;5008592;28;20080;-93
2023/05/13 11:10:28;;;;;;;5.10;4.57;;;;;;;30.72;27.75;101953.97;5016391;28;20018;-93
2023/05/13 11:13:15;;;;;;;5.35;4.40;;;;;;;31.11;28.55;101956.09;5023580;28;20286;-92
2023/05/13 11:15:51;;;;;;;7.70;4.55;;;;;;;31.12;27.13;101952.34;5025609;28;20670;-93